Time;durP1;ratioP1;P1;durP2;ratioP2;P2;SDS_P1;SDS_P2;PMS_P1;PMS_P2;Temp;Humidity;BMP_temperature;BMP_pressure;BME280_temperature;BME280_humidity;BME280_pressure;Samples;Min_cycle;Max_cycle;Signal;HPM_P1;HPM_P2
2022/08/26 00:01:15;;;;;;;0.32;0.22;;;25.00;67.10;;;;;;4995881;28;20170;-17
2022/08/26 00:03:41;;;;;;;0.20;0.20;;;25.00;67.30;;;;;;4998839;28;20172;-18
2022/08/26 00:06:07;;;;;;;0.20;0.20;;;25.00;67.20;;;;;;5003332;28;20034;-17
2022/08/26 00:08:33;;;;;;;0.20;0.20;;;24.90;67.40;;;;;;5007323;28;20039;-17
2022/08/26 00:10:58;;;;;;;0.20;0.20;;;25.00;67.30;;;;;;4997891;28;20095;-17
2022/08/26 00:13:24;;;;;;;0.20;0.20;;;25.00;67.20;;;;;;4995135;28;20042;-17
2022/08/26 00:15:50;;;;;;;0.20;0.20;;;24.90;67.30;;;;;;5011225;28;20042;-17
2022/08/26 00:18:16;;;;;;;0.30;0.30;;;25.00;67.20;;;;;;4995159;28;20053;-16
2022/08/26 00:20:42;;;;;;;0.55;0.50;;;24.90;67.40;;;;;;4992007;28;20115;-17
2022/08/26 00:23:08;;;;;;;0.20;0.20;;;24.90;67.40;;;;;;5001961;28;20512;-16
2022/08/26 00:25:33;;;;;;;0.20;0.13;;;24.90;67.30;;;;;;5002394;28;20449;-18
2022/08/26 00:28:00;;;;;;;0.32;0.32;;;24.90;67.40;;;;;;5002778;28;20133;-17
2022/08/26 00:30:26;;;;;;;0.20;0.20;;;24.90;67.50;;;;;;4999803;28;20057;-17
2022/08/26 00:32:52;;;;;;;0.50;0.35;;;24.90;67.30;;;;;;4999125;28;20050;-17
2022/08/26 00:35:18;;;;;;;0.28;0.10;;;24.90;67.30;;;;;;5000895;28;20045;-17
2022/08/26 00:37:43;;;;;;;0.40;0.30;;;24.90;67.40;;;;;;5006443;28;20041;-16
2022/08/26 00:40:12;;;;;;;0.20;0.20;;;24.90;67.40;;;;;;5005891;28;20050;-17
2022/08/26 00:42:38;;;;;;;0.28;0.28;;;24.90;67.30;;;;;;5000031;28;20050;-18
2022/08/26 00:45:04;;;;;;;0.75;0.20;;;24.90;67.40;;;;;;4999861;28;20034;-17
2022/08/26 00:47:36;;;;;;;0.20;0.20;;;24.90;67.50;;;;;;5000358;28;20036;-17
2022/08/26 00:50:03;;;;;;;0.30;0.20;;;24.90;67.40;;;;;;5014716;28;20228;-50
2022/08/26 00:52:29;;;;;;;0.20;0.10;;;24.90;67.30;;;;;;5005573;28;20048;-49
2022/08/26 00:55:02;;;;;;;0.20;0.20;;;24.80;67.30;;;;;;5001110;28;20134;-52
2022/08/26 00:57:28;;;;;;;0.40;0.20;;;24.80;67.50;;;;;;4997616;28;20051;-48
2022/08/26 00:59:55;;;;;;;0.20;0.20;;;24.80;67.60;;;;;;5001882;28;20306;-51
2022/08/26 01:02:21;;;;;;;0.20;0.20;;;24.80;67.50;;;;;;4997243;28;20046;-50
2022/08/26 01:04:52;;;;;;;0.20;0.20;;;24.80;67.40;;;;;;5002305;28;20113;-52
2022/08/26 01:07:18;;;;;;;0.35;0.30;;;24.90;67.30;;;;;;4982982;28;20069;-52
2022/08/26 01:09:44;;;;;;;0.35;0.35;;;24.90;67.40;;;;;;5011645;28;20032;-52
2022/08/26 01:12:10;;;;;;;0.10;0.10;;;24.80;67.40;;;;;;4995964;28;20046;-53
2022/08/26 01:14:36;;;;;;;0.25;0.25;;;24.80;67.40;;;;;;4997367;28;20552;-51
2022/08/26 01:17:02;;;;;;;0.15;0.15;;;24.80;67.50;;;;;;4995168;28;20447;-52
2022/08/26 01:19:30;;;;;;;0.50;0.40;;;24.80;67.40;;;;;;5002266;28;20524;-52
2022/08/26 01:22:07;;;;;;;0.20;0.20;;;24.80;67.50;;;;;;4981813;28;20042;-46
2022/08/26 01:24:33;;;;;;;0.30;0.30;;;24.80;67.40;;;;;;5000859;28;20108;-49
2022/08/26 01:27:00;;;;;;;1.10;0.30;;;24.80;67.50;;;;;;4999822;28;20060;-50
2022/08/26 01:29:26;;;;;;;0.30;0.20;;;24.80;67.30;;;;;;4995241;28;20038;-46
2022/08/26 01:31:56;;;;;;;0.22;0.22;;;24.80;67.50;;;;;;4998042;28;20049;-43
2022/08/26 01:34:21;;;;;;;0.20;0.20;;;24.80;67.40;;;;;;5019013;28;20508;-52
2022/08/26 01:36:51;;;;;;;0.22;0.22;;;24.80;67.20;;;;;;5003036;28;20041;-48
2022/08/26 01:39:17;;;;;;;0.43;0.20;;;24.80;67.20;;;;;;5006885;28;20024;-47
2022/08/26 01:41:43;;;;;;;0.60;0.30;;;24.80;67.30;;;;;;5000097;28;20042;-53
2022/08/26 01:44:12;;;;;;;1.00;0.28;;;24.80;67.40;;;;;;5000479;28;20038;-45
2022/08/26 01:46:37;;;;;;;0.25;0.20;;;24.80;67.50;;;;;;4996746;28;20099;-48
2022/08/26 01:49:03;;;;;;;0.40;0.30;;;24.70;67.50;;;;;;5029254;28;20076;-52
2022/08/26 01:51:30;;;;;;;0.52;0.32;;;24.70;67.40;;;;;;4979493;28;20038;-53
2022/08/26 01:53:56;;;;;;;1.00;0.57;;;24.70;67.40;;;;;;5013820;28;20034;-42
2022/08/26 01:56:22;;;;;;;0.57;0.30;;;24.70;67.40;;;;;;5017544;28;20121;-49
2022/08/26 01:58:53;;;;;;;0.20;0.10;;;24.70;67.40;;;;;;4999370;28;20125;-41
2022/08/26 02:01:18;;;;;;;0.30;0.20;;;24.70;67.40;;;;;;5001676;28;20087;-52
2022/08/26 02:04:02;;;;;;;0.15;0.15;;;24.70;67.60;;;;;;5006081;28;20042;-47
2022/08/26 02:06:28;;;;;;;0.28;0.22;;;24.70;67.50;;;;;;4994499;28;20069;-50
2022/08/26 02:08:55;;;;;;;0.20;0.20;;;24.70;67.30;;;;;;4976076;28;20811;-54
2022/08/26 02:11:20;;;;;;;0.43;0.30;;;24.70;67.30;;;;;;4997899;28;20037;-50
2022/08/26 02:13:51;;;;;;;0.15;0.10;;;24.70;67.50;;;;;;4999430;28;20041;-50
2022/08/26 02:16:18;;;;;;;0.22;0.20;;;24.70;67.50;;;;;;5008167;28;20114;-54
2022/08/26 02:18:43;;;;;;;0.20;0.20;;;24.70;67.40;;;;;;5008213;28;20044;-52
2022/08/26 02:21:09;;;;;;;0.30;0.20;;;24.70;67.30;;;;;;5012133;28;20101;-47
2022/08/26 02:23:35;;;;;;;0.20;0.20;;;24.70;67.40;;;;;;4998324;28;20053;-53
2022/08/26 02:26:08;;;;;;;0.50;0.20;;;24.70;67.60;;;;;;4995115;28;20026;-52
2022/08/26 02:28:55;;;;;;;0.28;0.20;;;24.70;67.50;;;;;;4995945;28;20536;-44
2022/08/26 02:31:21;;;;;;;0.20;0.10;;;24.70;67.40;;;;;;5020128;28;20031;-45
2022/08/26 02:33:46;;;;;;;0.68;0.25;;;24.70;67.60;;;;;;5008308;28;20051;-45
2022/08/26 02:36:17;;;;;;;0.30;0.20;;;24.70;67.40;;;;;;4993808;28;20030;-51
2022/08/26 02:38:42;;;;;;;0.28;0.20;;;24.70;67.40;;;;;;4993675;28;20057;-50
2022/08/26 02:41:08;;;;;;;0.32;0.30;;;24.60;67.40;;;;;;5003112;28;20061;-48
2022/08/26 02:43:35;;;;;;;0.35;0.20;;;24.70;67.60;;;;;;4997498;28;20038;-51
2022/08/26 02:46:00;;;;;;;0.13;0.10;;;24.70;67.60;;;;;;4994289;28;20544;-49
2022/08/26 02:48:26;;;;;;;0.52;0.30;;;24.60;67.50;;;;;;5012693;28;20181;-46
2022/08/26 02:50:52;;;;;;;0.30;0.20;;;24.60;67.40;;;;;;4995127;28;20582;-48
2022/08/26 02:53:18;;;;;;;0.20;0.20;;;24.70;67.30;;;;;;5005166;28;20065;-51
2022/08/26 02:55:44;;;;;;;0.60;0.47;;;24.70;67.30;;;;;;5015988;28;20068;-50
2022/08/26 02:58:10;;;;;;;0.25;0.17;;;24.70;67.30;;;;;;4999260;28;20065;-50
2022/08/26 03:00:36;;;;;;;0.52;0.30;;;24.60;67.50;;;;;;4998840;28;20070;-50
2022/08/26 03:03:02;;;;;;;0.20;0.20;;;24.60;67.30;;;;;;4995527;28;20030;-48
2022/08/26 03:05:27;;;;;;;0.20;0.20;;;24.60;67.30;;;;;;4995036;28;20107;-50
2022/08/26 03:07:53;;;;;;;0.28;0.28;;;24.60;67.20;;;;;;4998090;28;20042;-50
2022/08/26 03:10:19;;;;;;;0.25;0.20;;;24.60;67.30;;;;;;4997943;28;20049;-50
2022/08/26 03:12:45;;;;;;;0.20;0.20;;;24.60;67.30;;;;;;4995585;28;20136;-49
2022/08/26 03:15:12;;;;;;;0.20;0.20;;;24.60;67.40;;;;;;4996640;28;20121;-43
2022/08/26 03:17:38;;;;;;;0.45;0.20;;;24.60;67.40;;;;;;4995111;28;20053;-42
2022/08/26 03:20:08;;;;;;;0.10;0.10;;;24.60;67.40;;;;;;4996999;28;20052;-41
2022/08/26 03:22:33;;;;;;;0.20;0.20;;;24.60;67.40;;;;;;4997830;28;20531;-45
2022/08/26 03:24:59;;;;;;;0.20;0.20;;;24.60;67.30;;;;;;4999573;28;20041;-45
2022/08/26 03:27:24;;;;;;;0.13;0.13;;;24.60;67.30;;;;;;5000706;28;20695;-47
2022/08/26 03:32:34;;;;;;;0.40;0.20;;;24.60;67.30;;;;;;5007148;28;20061;-49
2022/08/26 03:35:00;;;;;;;0.73;0.28;;;24.60;67.30;;;;;;5000587;28;20034;-50
2022/08/26 03:37:25;;;;;;;0.20;0.20;;;24.60;67.50;;;;;;4997012;28;20481;-49
2022/08/26 03:39:51;;;;;;;0.20;0.20;;;24.60;67.50;;;;;;5000438;28;20041;-46
2022/08/26 03:42:16;;;;;;;0.10;0.10;;;24.50;67.60;;;;;;4998403;28;20103;-48
2022/08/26 03:44:42;;;;;;;0.25;0.20;;;24.60;67.70;;;;;;4992029;28;20516;-46
2022/08/26 03:47:08;;;;;;;0.10;0.10;;;24.50;67.70;;;;;;4999444;28;20063;-46
2022/08/26 03:49:34;;;;;;;0.20;0.13;;;24.60;67.70;;;;;;5001414;28;20120;-50
2022/08/26 03:52:00;;;;;;;0.20;0.20;;;24.60;67.70;;;;;;4997089;28;20054;-45
2022/08/26 03:54:26;;;;;;;0.20;0.10;;;24.50;67.80;;;;;;4997110;28;20050;-51
2022/08/26 03:56:52;;;;;;;0.20;0.20;;;24.60;67.80;;;;;;4996613;28;20806;-53
2022/08/26 03:59:18;;;;;;;0.30;0.30;;;24.60;67.80;;;;;;5006623;28;20046;-48
2022/08/26 04:01:44;;;;;;;1.45;0.20;;;24.50;67.90;;;;;;5008236;28;20054;-52
2022/08/26 04:04:09;;;;;;;0.40;0.40;;;24.60;67.80;;;;;;5003029;28;20058;-45
2022/08/26 04:06:37;;;;;;;0.38;0.15;;;24.60;67.80;;;;;;5008888;28;20046;-47
2022/08/26 04:09:05;;;;;;;0.15;0.15;;;24.60;68.00;;;;;;5006503;28;20400;-50
2022/08/26 04:11:31;;;;;;;0.20;0.20;;;24.50;67.90;;;;;;4997953;28;20661;-43
2022/08/26 04:14:00;;;;;;;0.30;0.20;;;24.50;68.00;;;;;;5004527;28;20555;-52
2022/08/26 04:16:26;;;;;;;1.27;0.20;;;24.50;68.10;;;;;;4999286;28;20046;-47
2022/08/26 04:18:52;;;;;;;0.10;0.10;;;24.50;68.00;;;;;;5008857;28;20942;-51
2022/08/26 04:21:17;;;;;;;0.25;0.22;;;24.50;67.90;;;;;;5015142;28;20549;-45
2022/08/26 04:23:43;;;;;;;0.20;0.20;;;24.50;68.00;;;;;;5003740;28;20041;-50
2022/08/26 04:26:08;;;;;;;0.10;0.10;;;24.50;68.00;;;;;;5001572;28;20483;-46
2022/08/26 04:28:34;;;;;;;0.35;0.20;;;24.50;67.90;;;;;;5005504;28;20042;-47
2022/08/26 04:31:00;;;;;;;0.63;0.17;;;24.50;67.80;;;;;;4997499;28;21617;-49
2022/08/26 04:33:25;;;;;;;0.45;0.30;;;24.50;67.90;;;;;;5000376;28;20058;-49
2022/08/26 04:36:01;;;;;;;0.15;0.15;;;24.50;67.80;;;;;;5001603;28;20151;-47
2022/08/26 04:38:27;;;;;;;0.13;0.13;;;24.60;67.80;;;;;;5005124;28;20197;-46
2022/08/26 04:40:52;;;;;;;0.65;0.20;;;24.50;67.80;;;;;;4996787;28;20045;-46
2022/08/26 04:43:18;;;;;;;0.20;0.20;;;24.50;67.80;;;;;;5001886;28;20042;-47
2022/08/26 04:45:44;;;;;;;0.10;0.10;;;24.50;67.80;;;;;;5000065;28;20068;-53
2022/08/26 04:48:10;;;;;;;0.20;0.10;;;24.50;67.90;;;;;;4994231;28;20046;-52
2022/08/26 04:50:36;;;;;;;0.15;0.15;;;24.50;67.70;;;;;;4999987;28;20050;-51
2022/08/26 04:53:03;;;;;;;0.28;0.17;;;24.50;67.60;;;;;;5001429;28;20050;-49
2022/08/26 04:55:29;;;;;;;0.20;0.20;;;24.60;67.50;;;;;;4987706;28;20530;-44
2022/08/26 04:57:55;;;;;;;0.30;0.20;;;24.50;67.60;;;;;;4996684;28;20074;-48
2022/08/26 05:00:21;;;;;;;0.25;0.20;;;24.50;67.70;;;;;;4994797;28;20085;-48
2022/08/26 05:02:47;;;;;;;0.40;0.22;;;24.50;67.70;;;;;;4995165;28;20069;-49
2022/08/26 05:05:12;;;;;;;0.30;0.20;;;24.50;67.80;;;;;;4996440;28;20508;-52
2022/08/26 05:07:38;;;;;;;0.90;0.20;;;24.50;67.70;;;;;;4996220;28;20096;-46
2022/08/26 05:10:05;;;;;;;1.85;0.50;;;24.50;67.60;;;;;;5003192;28;20049;-31
2022/08/26 05:12:30;;;;;;;1.20;0.60;;;24.30;65.50;;;;;;5008627;28;20137;-48
2022/08/26 05:14:56;;;;;;;3.83;1.25;;;23.90;62.10;;;;;;4998254;28;20132;-50
2022/08/26 05:17:22;;;;;;;1.50;0.90;;;23.50;61.10;;;;;;4997772;28;20042;-53
2022/08/26 05:19:48;;;;;;;1.45;0.90;;;23.30;60.70;;;;;;5000078;28;20036;-51
2022/08/26 05:22:14;;;;;;;2.03;1.00;;;23.00;60.60;;;;;;4997202;28;20112;-50
2022/08/26 05:24:40;;;;;;;1.75;1.02;;;22.90;61.00;;;;;;5000348;28;20037;-44
2022/08/26 05:27:06;;;;;;;1.42;1.08;;;22.90;60.90;;;;;;5003190;28;20049;-49
2022/08/26 05:29:31;;;;;;;1.85;0.90;;;22.80;60.90;;;;;;4999521;28;20056;-53
2022/08/26 05:31:57;;;;;;;1.50;0.80;;;22.60;61.20;;;;;;5001178;28;20085;-48
2022/08/26 05:34:23;;;;;;;2.13;0.80;;;22.50;61.40;;;;;;5005406;28;20036;-53
2022/08/26 05:36:48;;;;;;;1.85;0.88;;;22.30;61.50;;;;;;5000232;28;20048;-52
2022/08/26 05:39:14;;;;;;;2.28;1.30;;;22.30;61.70;;;;;;4997856;28;20042;-51
2022/08/26 05:41:40;;;;;;;1.58;0.93;;;22.30;61.70;;;;;;4998329;28;20601;-50
2022/08/26 05:44:08;;;;;;;3.22;0.80;;;22.20;61.70;;;;;;4999627;28;20557;-36
2022/08/26 05:46:34;;;;;;;2.90;1.00;;;22.10;62.10;;;;;;5001909;28;20120;-50
2022/08/26 05:48:59;;;;;;;2.03;0.70;;;22.10;62.40;;;;;;5004611;28;20160;-45
2022/08/26 05:51:25;;;;;;;1.17;0.68;;;22.00;62.80;;;;;;4998104;28;20421;-52
2022/08/26 05:53:51;;;;;;;0.85;0.77;;;21.90;63.00;;;;;;5002449;28;20084;-46
2022/08/26 05:56:18;;;;;;;2.38;1.05;;;21.80;63.60;;;;;;5000898;28;20496;-50
2022/08/26 05:58:44;;;;;;;2.33;1.00;;;21.70;63.80;;;;;;5002288;28;20126;-45
2022/08/26 06:01:13;;;;;;;2.55;0.70;;;21.60;64.40;;;;;;4996749;28;20117;-46
2022/08/26 06:03:39;;;;;;;2.75;0.73;;;21.50;65.00;;;;;;5002952;28;20133;-52
2022/08/26 06:06:06;;;;;;;2.13;0.80;;;21.50;65.20;;;;;;4998566;28;20030;-47
2022/08/26 06:08:32;;;;;;;2.08;0.90;;;21.50;65.20;;;;;;4999262;28;20045;-52
2022/08/26 06:11:03;;;;;;;1.90;1.05;;;21.50;65.70;;;;;;5007930;28;20045;-49
2022/08/26 06:13:28;;;;;;;3.20;0.95;;;21.40;65.80;;;;;;4994506;28;20053;-48
2022/08/26 06:15:54;;;;;;;2.38;0.60;;;21.40;66.00;;;;;;4996409;28;20060;-45
2022/08/26 06:18:26;;;;;;;2.30;0.73;;;21.30;66.30;;;;;;5000202;28;20103;-51
2022/08/26 06:20:53;;;;;;;1.80;0.90;;;21.10;67.00;;;;;;4996161;28;20061;-52
2022/08/26 06:26:03;;;;;;;1.85;1.33;;;20.90;67.60;;;;;;4996381;28;20045;-50
2022/08/26 06:28:29;;;;;;;1.60;0.80;;;20.90;67.90;;;;;;4994373;28;20093;-48
2022/08/26 06:30:54;;;;;;;1.58;0.82;;;20.80;68.10;;;;;;4995417;28;20520;-50
2022/08/26 06:33:23;;;;;;;2.08;0.93;;;20.80;68.20;;;;;;5002136;28;20045;-49
2022/08/26 06:35:49;;;;;;;1.80;0.80;;;20.70;68.90;;;;;;4999856;28;20053;-50
2022/08/26 06:38:16;;;;;;;2.65;1.25;;;20.70;69.10;;;;;;4997185;28;20046;-46
2022/08/26 06:40:51;;;;;;;2.50;1.13;;;20.70;69.50;;;;;;4997629;28;20050;-52
2022/08/26 06:43:18;;;;;;;2.28;1.17;;;20.60;69.60;;;;;;4997557;28;20135;-52
2022/08/26 06:45:44;;;;;;;3.25;1.10;;;20.70;69.70;;;;;;4996343;28;20404;-49
2022/08/26 06:48:11;;;;;;;4.03;0.82;;;20.60;69.90;;;;;;4998523;28;20128;-49
2022/08/26 06:50:36;;;;;;;2.22;1.10;;;20.60;70.10;;;;;;5001683;28;20042;-51
2022/08/26 06:53:02;;;;;;;1.50;1.00;;;20.60;70.20;;;;;;4999677;28;20057;-50
2022/08/26 06:55:27;;;;;;;2.08;0.90;;;20.50;70.60;;;;;;5000768;28;20052;-44
2022/08/26 06:57:53;;;;;;;2.42;0.80;;;20.50;71.10;;;;;;4994596;28;20060;-51
2022/08/26 07:00:19;;;;;;;2.92;0.90;;;20.50;71.10;;;;;;4999879;28;20519;-51
2022/08/26 07:02:45;;;;;;;1.33;0.75;;;20.60;70.90;;;;;;5002714;28;20045;-52
2022/08/26 07:05:12;;;;;;;2.00;0.80;;;20.70;70.30;;;;;;5009604;28;20467;-46
2022/08/26 07:07:38;;;;;;;1.35;0.98;;;20.80;70.10;;;;;;4644331;28;9999997;-46
2022/08/26 07:10:04;;;;;;;1.73;0.90;;;20.80;69.70;;;;;;4995646;28;20136;-43
2022/08/26 07:12:30;;;;;;;1.45;0.47;;;20.90;69.50;;;;;;4991424;28;20128;-46
2022/08/26 07:14:56;;;;;;;2.10;1.50;;;21.00;69.40;;;;;;4994843;28;20042;-54
2022/08/26 07:17:22;;;;;;;1.85;0.88;;;21.40;69.00;;;;;;4995178;28;20049;-45
2022/08/26 07:19:47;;;;;;;1.35;0.40;;;23.60;64.90;;;;;;4994180;28;20048;-53
2022/08/26 07:22:13;;;;;;;1.57;0.80;;;26.20;57.50;;;;;;4646167;28;9999958;-49
2022/08/26 07:24:40;;;;;;;1.85;0.90;;;23.40;60.70;;;;;;4988878;28;20668;-50
2022/08/26 07:27:11;;;;;;;1.58;0.73;;;22.90;63.20;;;;;;4989487;28;20119;-50
2022/08/26 07:29:38;;;;;;;2.28;1.20;;;22.90;63.40;;;;;;4994562;28;20492;-49
2022/08/26 07:32:03;;;;;;;2.25;0.70;;;22.70;64.10;;;;;;5009778;28;20042;-47
2022/08/26 07:34:31;;;;;;;2.45;0.50;;;22.50;64.70;;;;;;4993891;28;20512;-51
2022/08/26 07:36:56;;;;;;;1.23;0.73;;;22.60;64.80;;;;;;4997250;28;20099;-48
2022/08/26 07:39:22;;;;;;;2.90;0.77;;;22.60;65.90;;;;;;4998272;28;20026;-53
2022/08/26 07:41:48;;;;;;;0.68;0.50;;;22.50;67.10;;;;;;4994267;28;20030;-53
2022/08/26 07:44:14;;;;;;;1.67;0.75;;;22.50;69.50;;;;;;4999916;28;20034;-49
2022/08/26 07:46:40;;;;;;;1.42;0.50;;;22.60;68.20;;;;;;4994364;28;20026;-51
2022/08/26 07:49:05;;;;;;;1.55;0.70;;;22.60;67.80;;;;;;4993923;28;20030;-38
2022/08/26 07:51:31;;;;;;;1.00;0.65;;;22.60;68.00;;;;;;4990295;28;20056;-49
2022/08/26 07:53:57;;;;;;;0.95;0.68;;;22.50;68.90;;;;;;4990611;28;20052;-42
2022/08/26 07:56:22;;;;;;;1.02;0.50;;;22.40;68.60;;;;;;4994048;28;20030;-55
2022/08/26 07:58:49;;;;;;;2.13;0.73;;;22.40;68.40;;;;;;4988804;28;20420;-52
2022/08/26 08:01:14;;;;;;;1.20;0.40;;;22.40;68.20;;;;;;5011614;28;22577;-50
2022/08/26 08:03:40;;;;;;;1.52;0.50;;;22.50;67.70;;;;;;4992486;28;20054;-50
2022/08/26 08:06:06;;;;;;;2.28;0.70;;;22.40;67.80;;;;;;4994264;28;20554;-15
2022/08/26 08:08:34;;;;;;;0.90;0.52;;;22.40;67.60;;;;;;4996891;28;20049;-15
2022/08/26 08:11:00;;;;;;;2.17;0.60;;;22.40;67.70;;;;;;5000726;28;20064;-15
2022/08/26 08:13:25;;;;;;;1.00;0.40;;;22.50;67.60;;;;;;4995670;28;20725;-17
2022/08/26 08:15:51;;;;;;;1.40;0.70;;;22.50;67.50;;;;;;5000169;28;20041;-16
2022/08/26 08:18:17;;;;;;;2.67;0.70;;;22.50;67.50;;;;;;4992495;28;20042;-17
2022/08/26 08:20:43;;;;;;;1.77;0.35;;;22.40;67.60;;;;;;4995278;28;20661;-17
2022/08/26 08:23:08;;;;;;;1.55;0.60;;;22.50;67.40;;;;;;4993377;28;20136;-16
2022/08/26 08:25:34;;;;;;;2.78;0.80;;;22.60;67.40;;;;;;4993241;28;20029;-22
2022/08/26 08:27:59;;;;;;;2.03;0.88;;;22.50;67.60;;;;;;4994677;28;20048;-16
2022/08/26 08:30:25;;;;;;;2.75;1.10;;;22.40;67.80;;;;;;4998415;28;20456;-15
2022/08/26 08:32:51;;;;;;;2.22;0.88;;;22.40;68.30;;;;;;4998285;28;20057;-16
2022/08/26 08:35:17;;;;;;;2.05;0.63;;;22.30;68.30;;;;;;4998505;28;20046;-16
2022/08/26 08:37:42;;;;;;;1.42;0.60;;;22.30;68.50;;;;;;4996031;28;20057;-19
2022/08/26 08:40:09;;;;;;;2.53;0.55;;;22.30;68.70;;;;;;4996966;28;20082;-18
2022/08/26 08:42:37;;;;;;;1.83;0.80;;;22.40;68.40;;;;;;4990933;28;20129;-17
2022/08/26 08:45:29;;;;;;;1.83;0.70;;;22.50;68.10;;;;;;4998478;28;20125;-16
2022/08/26 08:47:56;;;;;;;2.80;1.00;;;22.50;68.30;;;;;;4995076;28;20038;-16
2022/08/26 08:50:27;;;;;;;2.35;0.90;;;22.30;68.40;;;;;;5005272;28;20403;-18
2022/08/26 08:53:12;;;;;;;3.00;1.00;;;22.30;68.60;;;;;;4995301;28;20054;-16
2022/08/26 08:55:50;;;;;;;1.92;0.90;;;22.40;68.30;;;;;;4997281;28;20049;-16
2022/08/26 08:58:18;;;;;;;2.15;0.90;;;22.50;68.20;;;;;;4999771;28;20042;-17
2022/08/26 09:00:57;;;;;;;1.67;0.70;;;22.40;68.30;;;;;;4994228;28;20648;-16
2022/08/26 09:03:33;;;;;;;3.03;1.00;;;22.50;68.70;;;;;;4997301;28;20103;-15
2022/08/26 09:05:59;;;;;;;3.33;0.77;;;22.50;68.60;;;;;;5010153;28;20046;-17
2022/08/26 09:08:28;;;;;;;2.42;1.13;;;22.50;68.20;;;;;;5000343;28;20403;-18
2022/08/26 09:10:55;;;;;;;2.22;0.73;;;22.50;68.20;;;;;;4995931;28;20065;-17
2022/08/26 09:13:22;;;;;;;1.15;0.75;;;22.60;67.70;;;;;;4991434;28;20111;-18
2022/08/26 09:16:08;;;;;;;2.53;0.82;;;22.60;67.40;;;;;;4999127;28;21188;-17
2022/08/26 09:18:53;;;;;;;2.75;0.68;;;22.60;67.40;;;;;;4995026;28;20618;-25
2022/08/26 09:21:22;;;;;;;1.55;0.90;;;22.60;67.10;;;;;;4993935;28;20416;-17
2022/08/26 09:24:06;;;;;;;1.49;0.60;;;22.50;67.20;;;;;;4935125;28;10000974;-17
2022/08/26 09:26:37;;;;;;;2.97;0.80;;;22.60;67.00;;;;;;4996712;28;20308;-17
2022/08/26 09:29:07;;;;;;;1.88;0.80;;;22.70;66.60;;;;;;4990310;28;20054;-17
2022/08/26 09:31:34;;;;;;;1.77;0.73;;;22.60;66.60;;;;;;4994722;28;20132;-18
2022/08/26 09:34:05;;;;;;;1.08;0.60;;;22.60;66.60;;;;;;4993018;28;20056;-17
2022/08/26 09:36:36;;;;;;;2.50;0.73;;;22.60;66.60;;;;;;4987754;28;20042;-18
2022/08/26 09:39:02;;;;;;;1.42;0.80;;;22.50;66.60;;;;;;4994771;28;20136;-18
2022/08/26 09:41:32;;;;;;;1.88;0.80;;;22.50;66.40;;;;;;5001585;28;20145;-17
2022/08/26 09:44:27;;;;;;;6.13;0.95;;;22.40;66.50;;;;;;4995964;28;20048;-18
2022/08/26 09:47:03;;;;;;;1.25;0.70;;;22.60;66.30;;;;;;4996631;28;20062;-18
2022/08/26 09:49:34;;;;;;;5.55;0.80;;;22.60;66.30;;;;;;4987971;28;20511;-19
2022/08/26 09:52:12;;;;;;;2.40;0.80;;;22.60;66.10;;;;;;5014814;27;20482;-18
2022/08/26 09:54:38;;;;;;;3.38;0.70;;;22.70;66.10;;;;;;4995825;28;20435;-18
2022/08/26 09:57:34;;;;;;;1.75;0.60;;;22.60;66.10;;;;;;5005649;28;20058;-19
2022/08/26 10:00:00;;;;;;;2.33;0.68;;;22.70;66.00;;;;;;4992166;28;20057;-18
2022/08/26 10:02:35;;;;;;;2.65;0.63;;;22.80;65.90;;;;;;4990600;28;20050;-18
2022/08/26 10:05:05;;;;;;;1.25;0.60;;;22.90;65.80;;;;;;4991181;28;20045;-18
2022/08/26 10:07:41;;;;;;;2.20;1.02;;;22.90;65.80;;;;;;4995313;28;20483;-18
2022/08/26 10:10:29;;;;;;;2.35;0.40;;;22.90;65.80;;;;;;4989912;28;20046;-18
2022/08/26 10:13:05;;;;;;;1.73;0.60;;;23.00;65.80;;;;;;4989044;28;20516;-18
2022/08/26 10:15:39;;;;;;;2.03;0.77;;;23.00;65.80;;;;;;4993804;28;20044;-18
2022/08/26 10:18:38;;;;;;;1.02;0.60;;;23.00;65.80;;;;;;4993413;28;20537;-18
2022/08/26 10:21:16;;;;;;;1.50;0.40;;;23.10;65.50;;;;;;4992749;28;20066;-18
2022/08/26 10:23:44;;;;;;;17.27;0.85;;;23.10;65.30;;;;;;4993815;28;20081;-22
2022/08/26 10:26:18;;;;;;;2.70;0.85;;;23.10;65.00;;;;;;4997090;28;20050;-18
2022/08/26 10:29:07;;;;;;;1.45;0.57;;;23.10;64.90;;;;;;4980453;28;21046;-18
2022/08/26 10:31:45;;;;;;;2.50;1.20;;;23.10;65.50;;;;;;4994388;28;20042;-18
2022/08/26 10:34:11;;;;;;;5.57;1.67;;;23.10;65.90;;;;;;4994883;28;20412;-18
2022/08/26 10:36:51;;;;;;;7.63;2.22;;;23.20;66.00;;;;;;4994499;28;20029;-17
2022/08/26 10:39:24;;;;;;;4.30;1.70;;;23.20;66.50;;;;;;4978999;28;20564;-17
2022/08/26 10:41:51;;;;;;;3.63;1.20;;;23.30;66.30;;;;;;5005767;28;20046;-17
2022/08/26 10:44:17;;;;;;;3.25;1.05;;;23.30;65.90;;;;;;5000071;28;20533;-17
2022/08/26 10:46:52;;;;;;;1.80;0.75;;;23.30;64.80;;;;;;4997901;28;20165;-16
2022/08/26 10:49:17;;;;;;;1.90;0.75;;;23.40;63.80;;;;;;4985926;28;20104;-17
2022/08/26 10:51:48;;;;;;;2.03;1.05;;;23.30;63.40;;;;;;4988910;28;20046;-17
2022/08/26 10:54:32;;;;;;;1.20;0.80;;;23.30;63.30;;;;;;4649220;28;10000173;-17
2022/08/26 10:57:07;;;;;;;1.85;1.00;;;23.30;63.30;;;;;;4984866;28;20042;-21
2022/08/26 10:59:57;;;;;;;1.73;0.82;;;23.30;63.10;;;;;;4989257;28;20030;-19
2022/08/26 11:02:44;;;;;;;2.33;1.00;;;23.30;63.10;;;;;;4990250;28;20042;-17
2022/08/26 11:05:23;;;;;;;1.88;1.02;;;23.40;62.30;;;;;;4979712;28;20495;-18
2022/08/26 11:07:51;;;;;;;6.47;1.33;;;23.40;61.20;;;;;;4989739;28;20421;-18
2022/08/26 11:10:20;;;;;;;2.60;0.95;;;23.40;60.30;;;;;;5000111;28;20535;-18
2022/08/26 11:12:58;;;;;;;3.45;1.10;;;23.50;59.70;;;;;;4988596;28;20091;-18
2022/08/26 11:15:24;;;;;;;0.73;0.50;;;23.50;60.90;;;;;;4990812;28;20502;-18
2022/08/26 11:17:50;;;;;;;1.35;0.88;;;23.40;61.50;;;;;;4989805;28;20051;-18
2022/08/26 11:20:22;;;;;;;1.65;0.57;;;23.40;61.60;;;;;;4989647;28;20431;-19
2022/08/26 11:22:48;;;;;;;1.75;0.68;;;23.40;61.60;;;;;;4993749;28;20043;-18
2022/08/26 11:25:15;;;;;;;0.70;0.57;;;23.50;60.80;;;;;;4990633;28;20034;-17
2022/08/26 11:27:40;;;;;;;2.17;1.05;;;23.50;60.10;;;;;;4993248;28;20038;-18
2022/08/26 11:30:12;;;;;;;1.25;1.08;;;23.60;59.40;;;;;;4992222;28;20045;-18
2022/08/26 11:32:38;;;;;;;1.80;1.25;;;23.50;60.90;;;;;;4987645;28;20050;-18
2022/08/26 11:35:03;;;;;;;2.08;1.30;;;23.50;60.50;;;;;;4991405;28;20038;-18
2022/08/26 11:37:38;;;;;;;1.83;1.10;;;23.50;60.50;;;;;;4991511;28;20034;-19
2022/08/26 11:40:10;;;;;;;1.67;1.25;;;23.60;60.30;;;;;;4985011;28;20034;-17
2022/08/26 11:42:54;;;;;;;1.40;0.93;;;23.60;59.80;;;;;;4989265;28;20452;-19
2022/08/26 11:45:22;;;;;;;2.90;0.80;;;23.70;59.10;;;;;;4987299;28;20046;-17
2022/08/26 11:47:48;;;;;;;0.82;0.60;;;23.60;58.30;;;;;;4988625;28;20324;-17
2022/08/26 11:50:22;;;;;;;0.68;0.55;;;23.60;57.00;;;;;;4988335;28;20691;-14
2022/08/26 11:53:05;;;;;;;0.80;0.60;;;23.60;56.70;;;;;;4986278;28;20345;-15
2022/08/26 11:55:32;;;;;;;1.20;0.77;;;23.50;56.10;;;;;;4993052;28;20477;-15
2022/08/26 11:57:59;;;;;;;1.77;0.73;;;23.50;57.10;;;;;;4989315;28;20066;-14
2022/08/26 12:00:37;;;;;;;1.27;0.90;;;23.50;57.70;;;;;;5005173;28;20058;-15
2022/08/26 12:03:05;;;;;;;1.90;0.60;;;23.50;57.90;;;;;;4992390;28;20046;-17
2022/08/26 12:05:35;;;;;;;1.30;0.93;;;23.50;57.80;;;;;;4993335;28;20385;-15
2022/08/26 12:08:09;;;;;;;0.60;0.60;;;23.50;57.70;;;;;;4990018;28;20046;-15
2022/08/26 12:10:35;;;;;;;1.50;0.93;;;23.50;56.60;;;;;;5006536;28;20080;-15
2022/08/26 12:13:01;;;;;;;2.15;0.65;;;23.60;57.20;;;;;;4988291;28;20149;-15
2022/08/26 12:15:28;;;;;;;1.73;0.73;;;23.70;58.10;;;;;;4991349;28;20046;-15
2022/08/26 12:17:54;;;;;;;2.92;0.60;;;23.60;58.00;;;;;;4988060;28;20076;-20
2022/08/26 12:20:45;;;;;;;1.05;0.57;;;23.70;57.40;;;;;;4991008;28;20062;-16
2022/08/26 12:23:21;;;;;;;1.08;0.90;;;23.70;57.60;;;;;;4993410;28;20491;-15
2022/08/26 12:25:48;;;;;;;2.03;0.70;;;23.70;57.40;;;;;;4993604;28;20041;-15
2022/08/26 12:28:14;;;;;;;1.65;1.05;;;23.80;56.50;;;;;;4993267;28;20077;-15
2022/08/26 12:30:39;;;;;;;2.95;0.70;;;23.80;57.50;;;;;;4991457;28;20117;-16
2022/08/26 12:33:10;;;;;;;0.93;0.40;;;23.80;57.30;;;;;;4992972;28;20478;-15
2022/08/26 12:35:37;;;;;;;1.15;0.75;;;23.80;56.40;;;;;;4994330;28;20050;-16
2022/08/26 12:38:03;;;;;;;1.27;0.70;;;23.80;57.60;;;;;;4995727;28;20189;-15
2022/08/26 12:40:29;;;;;;;2.60;0.65;;;23.80;57.30;;;;;;4995544;28;20045;-21
2022/08/26 12:42:55;;;;;;;1.40;0.70;;;23.80;57.20;;;;;;5001396;28;20054;-16
2022/08/26 12:45:28;;;;;;;0.63;0.55;;;23.80;57.20;;;;;;4998957;28;20034;-15
2022/08/26 12:47:56;;;;;;;0.80;0.65;;;23.90;57.00;;;;;;4992936;28;20049;-15
2022/08/26 12:50:31;;;;;;;0.98;0.55;;;23.80;56.90;;;;;;4997738;28;20102;-15
2022/08/26 12:53:01;;;;;;;1.45;0.55;;;23.90;56.80;;;;;;5010119;28;20046;-15
2022/08/26 12:55:42;;;;;;;0.60;0.40;;;23.90;57.30;;;;;;4995778;28;20047;-15
2022/08/26 12:58:14;;;;;;;1.38;0.60;;;23.90;57.10;;;;;;4996522;28;20050;-15